Time;durP1;ratioP1;P1;durP2;ratioP2;P2;SDS_P1;SDS_P2;PMS_P1;PMS_P2;Temp;Humidity;BMP_temperature;BMP_pressure;BME280_temperature;BME280_humidity;BME280_pressure;Samples;Min_cycle;Max_cycle;Signal;HPM_P1;HPM_P2
2022/03/19 00:01:16;;;;;;;34.93;20.40;;;6.30;99.90;;;;;;5014733;28;20167;-74
2022/03/19 00:03:42;;;;;;;33.20;17.47;;;6.30;99.90;;;;;;5014298;28;20195;-73
2022/03/19 00:06:08;;;;;;;29.87;18.73;;;6.20;99.90;;;;;;5014665;28;20186;-74
2022/03/19 00:08:34;;;;;;;29.87;17.70;;;6.30;99.90;;;;;;5014829;28;20503;-74
2022/03/19 00:11:00;;;;;;;28.75;18.23;;;6.20;99.90;;;;;;5020570;28;20177;-75
2022/03/19 00:13:26;;;;;;;31.33;19.80;;;6.20;99.90;;;;;;5033678;28;20166;-75
2022/03/19 00:15:52;;;;;;;22.93;18.03;;;6.20;99.90;;;;;;5034416;28;20189;-74
2022/03/19 00:18:17;;;;;;;27.10;19.67;;;6.20;99.90;;;;;;5034300;28;20401;-74
2022/03/19 00:20:43;;;;;;;30.57;20.13;;;6.20;99.90;;;;;;5034204;28;20470;-73
2022/03/19 00:23:10;;;;;;;30.17;19.77;;;6.30;99.90;;;;;;5033898;28;20179;-74
2022/03/19 00:25:35;;;;;;;24.73;16.25;;;6.30;99.90;;;;;;5028255;28;20274;-74
2022/03/19 00:28:01;;;;;;;23.67;13.73;;;6.40;99.90;;;;;;5015184;28;20266;-74
2022/03/19 00:30:27;;;;;;;25.63;18.10;;;6.40;99.90;;;;;;5014597;28;20198;-72
2022/03/19 00:32:53;;;;;;;28.67;17.60;;;6.50;99.90;;;;;;5014099;28;20482;-75
2022/03/19 00:35:18;;;;;;;30.07;18.77;;;6.50;99.90;;;;;;5013999;28;20479;-74
2022/03/19 00:37:50;;;;;;;27.17;17.53;;;6.50;99.90;;;;;;5014143;28;20175;-74
2022/03/19 00:40:17;;;;;;;29.27;18.15;;;6.60;99.90;;;;;;5016750;28;20181;-73
2022/03/19 00:42:43;;;;;;;26.00;17.35;;;6.60;99.90;;;;;;5013971;28;20199;-76
2022/03/19 00:45:10;;;;;;;28.65;19.17;;;6.60;99.90;;;;;;5013716;28;20191;-74
2022/03/19 00:47:36;;;;;;;34.55;17.98;;;6.60;99.90;;;;;;5014539;28;20175;-73
2022/03/19 00:50:03;;;;;;;31.20;20.97;;;6.60;99.90;;;;;;5030009;28;20667;-74
2022/03/19 00:52:29;;;;;;;26.02;18.00;;;6.60;99.90;;;;;;5033738;28;20393;-73
2022/03/19 00:54:54;;;;;;;29.43;19.37;;;6.60;99.90;;;;;;5031475;28;20688;-72
2022/03/19 00:57:20;;;;;;;23.43;15.87;;;6.60;99.90;;;;;;5032430;28;20171;-72
2022/03/19 00:59:45;;;;;;;25.67;17.20;;;6.50;99.90;;;;;;5033504;28;20257;-72
2022/03/19 01:02:11;;;;;;;38.80;18.13;;;6.50;99.90;;;;;;5033296;28;20215;-74
2022/03/19 01:04:37;;;;;;;26.13;17.47;;;6.50;99.90;;;;;;5033098;28;20548;-73
2022/03/19 01:07:03;;;;;;;31.27;17.33;;;6.40;99.90;;;;;;5033377;28;20438;-73
2022/03/19 01:09:28;;;;;;;23.20;15.03;;;6.30;99.90;;;;;;5019449;28;20553;-73
2022/03/19 01:11:54;;;;;;;29.20;17.77;;;6.30;99.90;;;;;;5013832;28;20942;-73
2022/03/19 01:14:20;;;;;;;32.10;15.07;;;6.10;99.90;;;;;;5013128;28;20163;-72
2022/03/19 01:16:46;;;;;;;27.90;19.10;;;6.10;99.90;;;;;;5013732;28;20406;-72
2022/03/19 01:19:11;;;;;;;30.10;15.70;;;6.10;99.90;;;;;;5013626;28;20249;-73
2022/03/19 01:21:37;;;;;;;25.90;18.63;;;6.00;99.90;;;;;;5013731;28;20223;-72
2022/03/19 01:24:03;;;;;;;29.83;17.40;;;5.90;99.90;;;;;;5023326;28;20189;-73
2022/03/19 01:26:29;;;;;;;33.78;19.25;;;5.90;99.90;;;;;;5033377;28;20174;-72
2022/03/19 01:28:55;;;;;;;26.35;15.70;;;5.80;99.90;;;;;;5033192;28;20196;-73
2022/03/19 01:31:25;;;;;;;27.00;15.60;;;5.80;99.90;;;;;;5033119;28;20171;-73
2022/03/19 01:33:52;;;;;;;23.67;16.60;;;5.70;99.90;;;;;;5032926;28;20224;-73
2022/03/19 01:36:18;;;;;;;28.70;15.70;;;5.70;99.90;;;;;;5033214;28;20186;-73
2022/03/19 01:38:44;;;;;;;28.20;17.80;;;5.60;99.90;;;;;;5023096;28;20249;-73
2022/03/19 01:41:09;;;;;;;26.63;16.40;;;5.60;99.90;;;;;;5025847;28;20506;-74
2022/03/19 01:43:39;;;;;;;25.00;16.40;;;5.50;99.90;;;;;;5032656;28;20910;-74
2022/03/19 01:46:06;;;;;;;26.77;19.50;;;5.50;99.90;;;;;;5033004;28;20186;-74
2022/03/19 01:48:32;;;;;;;31.98;16.00;;;5.50;99.90;;;;;;5033008;28;20567;-73
2022/03/19 01:50:57;;;;;;;33.17;15.00;;;5.40;99.90;;;;;;5033099;28;20162;-74
2022/03/19 01:53:23;;;;;;;26.47;18.33;;;5.40;99.90;;;;;;5022475;28;20440;-73
2022/03/19 01:55:50;;;;;;;31.03;18.17;;;5.40;99.90;;;;;;5011850;28;20260;-74
2022/03/19 01:58:15;;;;;;;25.60;15.75;;;5.40;99.90;;;;;;5013436;28;20159;-73
2022/03/19 02:00:41;;;;;;;26.03;16.30;;;5.40;99.90;;;;;;5013226;28;20179;-73
2022/03/19 02:03:07;;;;;;;26.50;17.37;;;5.40;99.90;;;;;;5012814;28;20796;-73
2022/03/19 02:05:33;;;;;;;20.20;14.70;;;5.40;99.90;;;;;;5013106;28;20993;-73
2022/03/19 02:07:59;;;;;;;26.02;16.85;;;5.40;99.90;;;;;;5015471;28;20183;-73
2022/03/19 02:10:26;;;;;;;21.90;15.00;;;5.40;99.90;;;;;;5012882;28;20218;-73
2022/03/19 02:12:55;;;;;;;27.95;18.90;;;5.40;99.90;;;;;;5012924;28;20166;-73
2022/03/19 02:15:20;;;;;;;28.92;14.68;;;5.40;99.90;;;;;;5012790;28;20766;-74
2022/03/19 02:17:46;;;;;;;33.00;15.90;;;5.40;99.90;;;;;;5012996;28;20254;-73
2022/03/19 02:20:12;;;;;;;25.97;16.47;;;5.30;99.90;;;;;;5014161;28;20170;-71
2022/03/19 02:22:38;;;;;;;24.58;16.80;;;5.30;99.90;;;;;;5013213;28;20229;-73
2022/03/19 02:27:48;;;;;;;26.90;16.00;;;5.30;99.90;;;;;;5013493;28;20190;-74
2022/03/19 02:30:15;;;;;;;28.03;16.13;;;5.30;99.90;;;;;;5012980;28;20206;-76
2022/03/19 02:32:43;;;;;;;24.52;15.50;;;5.20;99.90;;;;;;5012962;28;20479;-73
2022/03/19 02:35:10;;;;;;;27.67;15.82;;;5.30;99.90;;;;;;5014738;28;20225;-73
2022/03/19 02:37:45;;;;;;;27.27;16.65;;;5.30;99.90;;;;;;5016352;28;20170;-74
2022/03/19 02:40:17;;;;;;;25.92;16.55;;;5.30;99.90;;;;;;5016643;28;20644;-73
2022/03/19 02:42:46;;;;;;;23.25;16.00;;;5.30;99.90;;;;;;5016258;28;20175;-73
2022/03/19 02:45:12;;;;;;;26.55;16.63;;;5.20;99.90;;;;;;5016080;28;20268;-72
2022/03/19 02:47:56;;;;;;;21.20;15.07;;;5.20;99.90;;;;;;5016223;28;20569;-73
2022/03/19 02:50:27;;;;;;;25.58;17.10;;;5.20;99.90;;;;;;5035193;28;20539;-74
2022/03/19 02:52:53;;;;;;;25.83;16.05;;;5.20;99.90;;;;;;5034587;28;20640;-74
2022/03/19 02:55:19;;;;;;;25.90;16.40;;;5.30;99.90;;;;;;5035466;28;20649;-73
2022/03/19 02:57:45;;;;;;;22.80;15.63;;;5.30;99.90;;;;;;5035815;28;20173;-73
2022/03/19 03:00:11;;;;;;;25.77;16.77;;;5.30;99.90;;;;;;5035708;28;20178;-74
2022/03/19 03:02:36;;;;;;;32.73;17.83;;;5.20;99.90;;;;;;5036100;28;20429;-72
2022/03/19 03:05:03;;;;;;;28.17;16.10;;;5.20;99.90;;;;;;5034549;28;20447;-73
2022/03/19 03:07:28;;;;;;;30.95;17.73;;;5.20;99.90;;;;;;5035511;28;20194;-72
2022/03/19 03:09:54;;;;;;;25.93;16.40;;;5.20;99.90;;;;;;5035643;28;20229;-74
2022/03/19 03:12:20;;;;;;;24.53;13.67;;;5.20;99.90;;;;;;5035774;28;20536;-73
2022/03/19 03:14:45;;;;;;;33.30;19.87;;;5.20;99.90;;;;;;5033708;28;20190;-74
2022/03/19 03:17:11;;;;;;;29.20;17.07;;;5.10;99.90;;;;;;5035367;28;20683;-73
2022/03/19 03:19:37;;;;;;;21.07;15.37;;;5.10;99.90;;;;;;5017889;28;20538;-73
2022/03/19 03:22:03;;;;;;;26.90;15.73;;;5.10;99.90;;;;;;5014204;28;20452;-74
2022/03/19 03:24:29;;;;;;;21.30;14.67;;;5.10;99.90;;;;;;5015221;28;20965;-75
2022/03/19 03:26:55;;;;;;;22.63;15.48;;;5.00;99.90;;;;;;5015466;28;20505;-73
2022/03/19 03:29:20;;;;;;;22.40;14.77;;;5.00;99.90;;;;;;5015386;28;20260;-73
2022/03/19 03:31:46;;;;;;;26.23;15.13;;;5.00;99.90;;;;;;5015296;28;20409;-72
2022/03/19 03:34:12;;;;;;;22.33;15.73;;;5.00;99.90;;;;;;5030686;28;20420;-72
2022/03/19 03:36:38;;;;;;;20.17;14.60;;;4.90;99.90;;;;;;5035096;28;20404;-73
2022/03/19 03:39:03;;;;;;;26.73;16.20;;;5.00;99.90;;;;;;5035339;28;20170;-73
2022/03/19 03:41:29;;;;;;;28.13;18.17;;;5.00;99.90;;;;;;5035049;28;20166;-73
2022/03/19 03:43:54;;;;;;;22.50;15.70;;;5.00;99.90;;;;;;5034436;28;20177;-72
2022/03/19 03:46:20;;;;;;;35.47;17.77;;;5.00;99.90;;;;;;5034407;28;20190;-72
2022/03/19 03:48:46;;;;;;;26.77;15.30;;;5.00;99.90;;;;;;5034379;28;20181;-73
2022/03/19 03:51:13;;;;;;;26.30;16.50;;;5.00;99.90;;;;;;5034885;28;20166;-73
2022/03/19 03:53:39;;;;;;;18.90;14.05;;;5.00;99.90;;;;;;5034388;28;20220;-73
2022/03/19 03:56:07;;;;;;;21.63;14.43;;;5.10;99.90;;;;;;5034730;28;20186;-73
2022/03/19 03:58:33;;;;;;;26.02;17.38;;;5.10;99.90;;;;;;5034690;28;20170;-73
2022/03/19 04:00:58;;;;;;;23.80;15.43;;;5.10;99.90;;;;;;5034856;28;20177;-72
2022/03/19 04:03:24;;;;;;;21.83;15.00;;;5.10;99.90;;;;;;5020333;28;20763;-73
2022/03/19 04:05:50;;;;;;;24.13;13.77;;;5.10;99.90;;;;;;5014726;28;20229;-73
2022/03/19 04:08:16;;;;;;;19.27;14.20;;;5.10;99.90;;;;;;5014748;28;20563;-72
2022/03/19 04:10:42;;;;;;;24.17;13.55;;;5.10;99.90;;;;;;5014558;28;20484;-73
2022/03/19 04:13:08;;;;;;;25.55;15.27;;;5.10;99.90;;;;;;5014385;28;20191;-73
2022/03/19 04:15:34;;;;;;;24.47;15.00;;;5.10;99.90;;;;;;5014636;28;20585;-74
2022/03/19 04:18:01;;;;;;;26.90;16.13;;;5.10;99.90;;;;;;5025568;28;20649;-72
2022/03/19 04:20:27;;;;;;;25.67;16.20;;;5.10;99.90;;;;;;5015124;28;20452;-73
2022/03/19 04:22:53;;;;;;;27.00;16.40;;;5.10;99.90;;;;;;5013115;28;20179;-74
2022/03/19 04:25:22;;;;;;;23.00;15.70;;;5.20;99.90;;;;;;5013848;28;20577;-73
2022/03/19 04:27:50;;;;;;;21.73;15.57;;;5.10;99.90;;;;;;5014346;28;20753;-73
2022/03/19 04:30:17;;;;;;;27.33;15.38;;;5.10;99.90;;;;;;5014173;28;20277;-73
2022/03/19 04:32:47;;;;;;;19.48;15.20;;;5.10;99.90;;;;;;5025692;28;20644;-75
2022/03/19 04:38:00;;;;;;;21.25;15.95;;;5.10;99.90;;;;;;5034354;28;20521;-73
2022/03/19 04:40:26;;;;;;;32.80;13.50;;;5.10;99.90;;;;;;5030733;28;20220;-73
2022/03/19 04:42:52;;;;;;;24.20;16.40;;;5.10;99.90;;;;;;5029072;28;20700;-72
2022/03/19 04:45:18;;;;;;;24.80;14.90;;;5.20;99.90;;;;;;5032151;28;20285;-72
2022/03/19 04:47:44;;;;;;;23.60;15.82;;;5.10;99.90;;;;;;5033692;28;20166;-73
2022/03/19 04:50:10;;;;;;;18.03;13.37;;;5.10;99.90;;;;;;5033512;28;20318;-73
2022/03/19 04:52:37;;;;;;;20.35;16.23;;;5.20;99.90;;;;;;5033734;28;20158;-74
2022/03/19 04:55:03;;;;;;;24.67;14.43;;;5.20;99.90;;;;;;5017123;28;20248;-72
2022/03/19 04:57:28;;;;;;;21.10;16.02;;;5.20;99.90;;;;;;5013313;28;20182;-73
2022/03/19 04:59:55;;;;;;;24.13;14.23;;;5.20;99.90;;;;;;5013964;28;20521;-73
2022/03/19 05:02:24;;;;;;;20.10;13.75;;;5.30;99.90;;;;;;5013604;28;20221;-73
2022/03/19 05:04:51;;;;;;;20.02;12.90;;;5.30;99.90;;;;;;5013238;28;20190;-73
2022/03/19 05:07:17;;;;;;;20.15;13.40;;;5.30;99.90;;;;;;5013482;28;20185;-73
2022/03/19 05:12:35;;;;;;;22.00;14.05;;;5.30;99.90;;;;;;5033269;28;20265;-74
2022/03/19 05:15:00;;;;;;;21.48;12.32;;;5.30;99.90;;;;;;5032987;28;20190;-73
2022/03/19 05:17:26;;;;;;;27.40;15.60;;;5.30;99.90;;;;;;5032102;28;20205;-74
2022/03/19 05:19:52;;;;;;;22.53;13.03;;;5.30;99.90;;;;;;5033106;28;20243;-73
2022/03/19 05:22:18;;;;;;;23.00;16.43;;;5.30;99.90;;;;;;5033203;28;20208;-73
2022/03/19 05:24:44;;;;;;;18.85;12.35;;;5.20;99.90;;;;;;5013796;28;20524;-74
2022/03/19 05:27:10;;;;;;;17.80;11.70;;;5.20;99.90;;;;;;5013596;28;20206;-73
2022/03/19 05:29:36;;;;;;;25.83;13.77;;;5.20;99.90;;;;;;5013329;28;20194;-73
2022/03/19 05:32:03;;;;;;;21.47;13.40;;;5.20;99.90;;;;;;5013403;28;20170;-73
2022/03/19 05:34:31;;;;;;;25.25;14.48;;;5.20;99.90;;;;;;5012879;28;20546;-73
2022/03/19 05:37:01;;;;;;;23.58;15.50;;;5.10;99.90;;;;;;5013347;28;20652;-73
2022/03/19 05:39:28;;;;;;;25.52;14.95;;;5.20;99.90;;;;;;5031309;28;20207;-73
2022/03/19 05:41:54;;;;;;;22.02;15.93;;;5.20;99.90;;;;;;5033112;28;20177;-72
2022/03/19 05:44:20;;;;;;;23.13;13.80;;;5.20;99.90;;;;;;5032446;28;20170;-73
2022/03/19 05:46:46;;;;;;;22.50;13.53;;;5.20;99.90;;;;;;5031831;28;20189;-73
2022/03/19 05:49:11;;;;;;;20.27;14.45;;;5.30;99.90;;;;;;5032886;28;20458;-73
2022/03/19 05:51:37;;;;;;;18.37;12.47;;;5.30;99.90;;;;;;5032786;28;20170;-72
2022/03/19 05:54:03;;;;;;;19.00;11.13;;;5.30;99.90;;;;;;5028742;28;20178;-72
2022/03/19 05:56:29;;;;;;;29.33;13.07;;;5.30;99.90;;;;;;5013279;28;20163;-72
2022/03/19 05:58:55;;;;;;;25.20;16.80;;;5.40;99.90;;;;;;5013177;28;20416;-72
2022/03/19 06:01:27;;;;;;;19.00;14.20;;;5.50;99.90;;;;;;5013836;28;20254;-73
2022/03/19 06:03:53;;;;;;;25.02;15.45;;;5.60;99.90;;;;;;5012802;28;20254;-73
2022/03/19 06:06:19;;;;;;;30.75;16.48;;;5.60;99.90;;;;;;5024689;28;20186;-73
2022/03/19 06:08:45;;;;;;;22.97;14.40;;;5.70;99.90;;;;;;5034590;28;20197;-73
2022/03/19 06:11:11;;;;;;;19.23;14.43;;;5.80;99.90;;;;;;5037906;28;20171;-73
2022/03/19 06:13:37;;;;;;;18.10;13.70;;;6.00;99.90;;;;;;5047324;28;20829;-73
2022/03/19 06:16:03;;;;;;;20.53;15.67;;;6.10;99.90;;;;;;5056314;28;20428;-73
2022/03/19 06:18:29;;;;;;;28.77;14.80;;;6.20;99.90;;;;;;5056311;28;20447;-73
2022/03/19 06:20:56;;;;;;;23.77;14.52;;;6.40;99.90;;;;;;5055078;28;20419;-72
2022/03/19 06:23:22;;;;;;;25.92;15.68;;;6.50;99.90;;;;;;5037148;28;20265;-72
2022/03/19 06:25:48;;;;;;;18.23;14.98;;;6.60;99.90;;;;;;5036397;28;20200;-73
2022/03/19 06:28:14;;;;;;;20.80;13.98;;;6.80;99.90;;;;;;5036238;28;20191;-73
2022/03/19 06:30:40;;;;;;;19.70;14.95;;;7.10;99.90;;;;;;5036257;28;20232;-74
2022/03/19 06:33:06;;;;;;;21.17;14.00;;;7.40;99.90;;;;;;5035884;28;20216;-72
2022/03/19 06:38:26;;;;;;;18.80;13.55;;;7.90;99.90;;;;;;5043559;28;20411;-72
2022/03/19 06:40:52;;;;;;;20.05;12.50;;;8.10;99.90;;;;;;5036105;28;20213;-73
2022/03/19 06:43:18;;;;;;;18.00;13.43;;;8.10;99.90;;;;;;5035941;28;20731;-72
2022/03/19 06:45:43;;;;;;;19.23;12.50;;;8.30;99.90;;;;;;5034965;28;20194;-72
2022/03/19 06:48:09;;;;;;;22.07;13.23;;;8.50;99.90;;;;;;5036147;28;20404;-74
2022/03/19 06:50:35;;;;;;;20.43;13.73;;;8.70;99.90;;;;;;5036310;28;20464;-74
2022/03/19 06:53:04;;;;;;;18.73;12.20;;;8.90;99.50;;;;;;5016980;28;20229;-72
2022/03/19 06:55:30;;;;;;;18.27;12.70;;;9.00;99.30;;;;;;5016528;28;20261;-73
2022/03/19 06:57:59;;;;;;;22.63;15.07;;;9.00;98.80;;;;;;5016255;28;20214;-72
2022/03/19 07:00:25;;;;;;;15.80;13.20;;;9.10;98.50;;;;;;5015953;28;20585;-72
2022/03/19 07:02:53;;;;;;;17.80;12.88;;;9.10;98.00;;;;;;5015890;28;20197;-73
2022/03/19 07:05:24;;;;;;;24.05;13.10;;;9.00;98.10;;;;;;5015602;28;20187;-72
2022/03/19 07:07:51;;;;;;;18.13;14.52;;;9.00;98.30;;;;;;5037749;28;20180;-72
2022/03/19 07:10:18;;;;;;;21.65;13.98;;;9.20;98.00;;;;;;5054658;28;20216;-73
2022/03/19 07:12:48;;;;;;;17.58;11.57;;;9.60;98.40;;;;;;5055225;28;20576;-72
2022/03/19 07:15:15;;;;;;;21.35;15.30;;;9.90;96.60;;;;;;5055102;28;20198;-70
2022/03/19 07:17:43;;;;;;;20.83;13.20;;;10.20;95.40;;;;;;5035310;28;20178;-71
2022/03/19 07:20:10;;;;;;;17.88;12.90;;;10.40;95.10;;;;;;5033761;28;20183;-70
2022/03/19 07:23:05;;;;;;;20.95;13.02;;;10.60;94.10;;;;;;5035137;28;20168;-69
2022/03/19 07:25:36;;;;;;;18.35;12.40;;;10.90;93.50;;;;;;5035237;28;20253;-69
2022/03/19 07:28:07;;;;;;;19.30;12.83;;;11.10;93.10;;;;;;5035391;28;20523;-69
2022/03/19 07:30:33;;;;;;;20.20;12.57;;;11.30;92.70;;;;;;5030416;28;20467;-68
2022/03/19 07:32:59;;;;;;;16.23;12.13;;;11.50;92.00;;;;;;5015186;28;20383;-70
2022/03/19 07:35:26;;;;;;;20.30;12.80;;;11.90;92.20;;;;;;5015030;28;20428;-69
2022/03/19 07:37:53;;;;;;;16.30;14.60;;;12.30;91.20;;;;;;5015325;28;20455;-74
2022/03/19 07:43:07;;;;;;;18.10;12.47;;;12.60;88.90;;;;;;5015422;28;20420;-70
2022/03/19 07:45:34;;;;;;;13.63;11.23;;;12.60;88.30;;;;;;5014915;28;20423;-73
2022/03/19 07:48:00;;;;;;;19.60;13.73;;;12.70;87.00;;;;;;5013878;28;20391;-66
2022/03/19 07:50:26;;;;;;;13.80;11.17;;;12.80;86.80;;;;;;5014544;28;20793;-67
2022/03/19 07:52:52;;;;;;;15.40;12.00;;;13.00;86.20;;;;;;5014772;28;20376;-68
2022/03/19 07:55:18;;;;;;;13.10;10.83;;;13.20;85.50;;;;;;5014615;28;20429;-69
2022/03/19 07:57:44;;;;;;;15.17;12.13;;;13.40;83.50;;;;;;5013774;28;20435;-69
2022/03/19 08:00:12;;;;;;;15.37;11.37;;;13.60;82.90;;;;;;5017695;28;20409;-69
2022/03/19 08:02:39;;;;;;;14.07;12.20;;;13.80;82.50;;;;;;5030935;28;20249;-69
2022/03/19 08:05:06;;;;;;;15.23;12.47;;;14.00;80.40;;;;;;5031965;28;20936;-68
2022/03/19 08:07:32;;;;;;;17.47;11.40;;;14.00;80.30;;;;;;5032274;28;20390;-69
2022/03/19 08:09:58;;;;;;;17.10;12.37;;;14.30;79.80;;;;;;5031277;28;20459;-70
2022/03/19 08:12:24;;;;;;;15.67;11.30;;;14.40;77.80;;;;;;5033547;28;20172;-70
2022/03/19 08:14:49;;;;;;;31.43;11.50;;;14.60;78.10;;;;;;5028898;28;20695;-67
2022/03/19 08:17:15;;;;;;;13.03;11.13;;;14.70;76.20;;;;;;5014250;28;20470;-69
2022/03/19 08:19:44;;;;;;;16.30;11.67;;;14.90;74.60;;;;;;5013093;28;20181;-68
2022/03/19 08:22:09;;;;;;;12.13;10.73;;;14.80;74.00;;;;;;5014681;28;20482;-68
2022/03/19 08:24:36;;;;;;;14.57;12.50;;;14.60;74.20;;;;;;5019206;28;20555;-67
2022/03/19 08:27:03;;;;;;;16.20;10.83;;;14.60;73.70;;;;;;5034558;28;20175;-68
2022/03/19 08:29:28;;;;;;;11.60;10.40;;;14.60;73.30;;;;;;5030478;28;20485;-69
2022/03/19 08:31:55;;;;;;;15.97;11.83;;;14.90;74.10;;;;;;5013680;28;20843;-70
2022/03/19 08:34:21;;;;;;;13.07;11.70;;;15.10;71.90;;;;;;5013868;28;20189;-67
2022/03/19 08:36:47;;;;;;;13.63;10.13;;;15.20;71.20;;;;;;5014223;28;20395;-67
2022/03/19 08:41:58;;;;;;;17.40;10.30;;;15.40;72.10;;;;;;5013750;28;20553;-68
2022/03/19 08:44:24;;;;;;;14.87;11.00;;;15.60;69.20;;;;;;5013787;28;20834;-68
2022/03/19 08:46:55;;;;;;;14.63;11.90;;;15.40;69.00;;;;;;5013817;28;20829;-67
2022/03/19 08:49:21;;;;;;;12.47;10.93;;;15.10;70.80;;;;;;5013673;28;20855;-67
2022/03/19 08:51:47;;;;;;;15.20;11.50;;;15.10;69.90;;;;;;5013677;28;20778;-68
2022/03/19 08:54:15;;;;;;;13.10;10.20;;;15.30;70.80;;;;;;5013196;28;20410;-70
2022/03/19 08:56:42;;;;;;;15.67;11.60;;;15.90;70.00;;;;;;5013502;28;20498;-69
2022/03/19 08:59:09;;;;;;;14.10;10.57;;;16.10;67.40;;;;;;5014492;28;20823;-69
2022/03/19 09:01:36;;;;;;;13.77;10.97;;;16.30;67.80;;;;;;5013519;28;20406;-68
2022/03/19 09:04:03;;;;;;;18.33;13.00;;;16.50;68.10;;;;;;5013188;28;20413;-66
2022/03/19 09:06:29;;;;;;;15.70;11.70;;;16.80;65.00;;;;;;5011989;28;20419;-67
2022/03/19 09:08:54;;;;;;;14.87;11.57;;;16.70;66.30;;;;;;5013092;28;20469;-71
2022/03/19 09:11:23;;;;;;;17.13;12.80;;;16.90;65.90;;;;;;5013401;28;20174;-70
2022/03/19 09:13:51;;;;;;;15.43;11.87;;;17.20;65.80;;;;;;5019321;28;20175;-67
2022/03/19 09:16:18;;;;;;;16.77;12.43;;;17.50;63.70;;;;;;5032996;28;20392;-68
2022/03/19 09:18:44;;;;;;;16.77;13.70;;;17.10;63.00;;;;;;5033053;28;20743;-69
2022/03/19 09:21:09;;;;;;;17.30;12.33;;;16.80;64.50;;;;;;5033013;28;20390;-65
2022/03/19 09:23:35;;;;;;;13.73;12.33;;;16.90;63.70;;;;;;5032545;28;20386;-69
2022/03/19 09:26:01;;;;;;;15.40;13.03;;;17.10;63.70;;;;;;5032842;28;20201;-71
2022/03/19 09:28:26;;;;;;;15.47;11.03;;;17.00;64.10;;;;;;5032128;28;20399;-71
2022/03/19 09:30:52;;;;;;;13.57;11.97;;;17.20;63.40;;;;;;5032691;28;20282;-69
2022/03/19 09:33:19;;;;;;;15.33;13.40;;;17.50;64.60;;;;;;5032273;28;20166;-73
2022/03/19 09:35:45;;;;;;;14.20;10.77;;;17.60;62.90;;;;;;5032662;28;20183;-72
2022/03/19 09:38:11;;;;;;;20.00;12.13;;;17.60;60.80;;;;;;5033280;28;20387;-67
2022/03/19 09:40:38;;;;;;;13.23;10.90;;;17.70;60.60;;;;;;5033206;28;20387;-71
2022/03/19 09:43:04;;;;;;;14.30;11.50;;;17.50;60.30;;;;;;5027339;28;20405;-72
2022/03/19 09:45:30;;;;;;;14.33;11.20;;;17.60;59.70;;;;;;5016553;28;20528;-72
2022/03/19 09:47:57;;;;;;;15.07;12.20;;;17.40;59.60;;;;;;5021354;28;20206;-73
2022/03/19 09:50:23;;;;;;;14.73;12.00;;;17.40;60.20;;;;;;5030494;28;20282;-71
2022/03/19 09:52:55;;;;;;;14.90;11.80;;;17.60;60.40;;;;;;5034434;28;20401;-71
2022/03/19 09:55:26;;;;;;;14.87;11.70;;;17.70;60.00;;;;;;5015048;28;20935;-71
2022/03/19 09:57:56;;;;;;;18.53;11.87;;;17.90;59.90;;;;;;5016640;28;20395;-74
2022/03/19 10:00:24;;;;;;;14.53;12.40;;;17.90;61.10;;;;;;5016898;28;20895;-71
2022/03/19 10:02:53;;;;;;;13.03;11.57;;;18.20;60.40;;;;;;5016289;28;20414;-69
2022/03/19 10:10:48;;;;;;;15.97;12.10;;;18.70;58.20;;;;;;5036375;28;20453;-71
2022/03/19 10:13:13;;;;;;;17.50;12.47;;;18.70;58.70;;;;;;5035716;28;20384;-71
2022/03/19 10:15:40;;;;;;;16.53;12.27;;;18.70;59.40;;;;;;5035955;28;20339;-68
2022/03/19 10:18:08;;;;;;;13.63;11.30;;;18.60;59.40;;;;;;5036244;28;20627;-68
2022/03/19 10:20:36;;;;;;;16.43;12.43;;;18.70;59.50;;;;;;5035876;28;20386;-71
2022/03/19 10:23:03;;;;;;;18.97;13.07;;;18.80;58.60;;;;;;5036090;28;20410;-71
2022/03/19 10:25:29;;;;;;;17.70;12.20;;;18.40;59.10;;;;;;5035967;28;20939;-70
2022/03/19 10:28:01;;;;;;;19.13;13.20;;;18.10;59.30;;;;;;5036037;28;20503;-70
2022/03/19 10:30:37;;;;;;;15.77;12.63;;;18.00;59.60;;;;;;5035978;28;20456;-71
2022/03/19 10:33:06;;;;;;;18.70;12.77;;;17.90;60.00;;;;;;5036050;28;20398;-69
2022/03/19 10:35:38;;;;;;;16.67;13.50;;;17.80;59.90;;;;;;5036177;28;20404;-70
2022/03/19 10:38:18;;;;;;;16.80;12.77;;;17.30;60.60;;;;;;5035872;28;20409;-73
2022/03/19 10:40:47;;;;;;;20.57;13.70;;;16.90;62.50;;;;;;5036199;28;20409;-68
2022/03/19 10:43:16;;;;;;;17.30;13.07;;;16.70;62.80;;;;;;5034059;28;20532;-69
2022/03/19 10:45:47;;;;;;;16.10;12.60;;;16.60;63.20;;;;;;5035646;28;20410;-71
2022/03/19 10:48:21;;;;;;;17.23;12.13;;;16.20;64.00;;;;;;5035919;28;20396;-70
2022/03/19 10:50:47;;;;;;;15.43;12.03;;;15.50;65.20;;;;;;5035693;28;20429;-71
2022/03/19 10:53:13;;;;;;;19.40;13.77;;;15.00;66.60;;;;;;5034764;28;20395;-70
2022/03/19 10:55:39;;;;;;;15.33;11.90;;;14.70;67.40;;;;;;5034331;28;20756;-73
2022/03/19 10:58:05;;;;;;;16.87;11.10;;;14.70;66.90;;;;;;5035416;28;20402;-70
2022/03/19 11:00:33;;;;;;;17.63;10.93;;;14.80;66.50;;;;;;5035223;28;20624;-72
2022/03/19 11:03:03;;;;;;;15.70;9.50;;;14.80;65.80;;;;;;5035056;28;20404;-70
2022/03/19 11:05:33;;;;;;;13.30;9.20;;;14.80;64.70;;;;;;5035146;28;20425;-69
2022/03/19 11:08:01;;;;;;;12.10;7.73;;;14.80;65.10;;;;;;5036253;28;20405;-67
2022/03/19 11:10:29;;;;;;;9.20;7.03;;;15.20;65.00;;;;;;5034506;28;20458;-70
2022/03/19 11:12:59;;;;;;;11.30;8.70;;;15.50;62.10;;;;;;5035488;28;20404;-73
2022/03/19 11:15:28;;;;;;;7.60;6.80;;;15.30;59.20;;;;;;5034954;28;20407;-74
2022/03/19 11:17:56;;;;;;;7.47;6.30;;;15.30;59.20;;;;;;5035165;28;20433;-73
2022/03/19 11:20:22;;;;;;;9.57;6.40;;;15.00;59.70;;;;;;5035091;28;20952;-69
2022/03/19 11:22:51;;;;;;;7.53;6.17;;;14.60;61.10;;;;;;5035088;28;20433;-71
2022/03/19 11:25:26;;;;;;;7.77;6.30;;;14.10;61.90;;;;;;5034853;28;20185;-68
2022/03/19 11:27:57;;;;;;;8.63;6.77;;;13.70;63.00;;;;;;5035348;28;20408;-72
2022/03/19 11:30:26;;;;;;;8.17;6.50;;;13.40;64.70;;;;;;5034978;28;20433;-71
2022/03/19 11:33:05;;;;;;;12.10;7.00;;;13.00;64.90;;;;;;5034670;28;20422;-68
2022/03/19 11:35:35;;;;;;;7.43;5.47;;;12.70;65.00;;;;;;5033456;28;21000;-71
2022/03/19 11:38:01;;;;;;;9.80;6.55;;;12.40;66.00;;;;;;5033386;28;20424;-71
2022/03/19 11:40:35;;;;;;;10.43;6.33;;;12.20;67.50;;;;;;5034674;28;20175;-64
2022/03/19 11:43:04;;;;;;;9.10;5.93;;;12.10;69.10;;;;;;5019092;28;20517;-67
2022/03/19 11:45:49;;;;;;;7.20;5.65;;;12.00;69.20;;;;;;5014990;28;20271;-67
2022/03/19 11:48:46;;;;;;;7.80;5.93;;;11.90;69.80;;;;;;5014849;28;20530;-65
2022/03/19 11:51:36;;;;;;;8.18;4.82;;;11.70;70.70;;;;;;5014869;28;20230;-65
2022/03/19 11:54:19;;;;;;;7.65;5.60;;;11.70;70.10;;;;;;5014374;28;20178;-66
2022/03/19 11:56:45;;;;;;;7.68;5.50;;;11.80;70.10;;;;;;5013299;28;20670;-64
2022/03/19 11:59:44;;;;;;;8.77;5.68;;;12.00;68.00;;;;;;5014674;28;20626;-66
2022/03/19 12:02:10;;;;;;;8.20;4.38;;;12.10;69.10;;;;;;5014437;28;20634;-65
2022/03/19 12:04:44;;;;;;;6.30;4.82;;;12.20;68.80;;;;;;5014033;28;20196;-66
2022/03/19 12:07:11;;;;;;;8.55;5.82;;;12.20;65.20;;;;;;5014000;28;20175;-66
2022/03/19 12:09:40;;;;;;;4.13;3.67;;;12.20;66.40;;;;;;5014295;28;20195;-68
2022/03/19 12:12:11;;;;;;;6.13;5.53;;;12.10;63.90;;;;;;5013079;28;20171;-67
2022/03/19 12:14:37;;;;;;;6.38;4.55;;;12.10;63.00;;;;;;5013881;28;20199;-67
2022/03/19 12:17:20;;;;;;;8.38;6.68;;;12.00;63.40;;;;;;5013231;28;20599;-66
2022/03/19 12:19:53;;;;;;;9.75;7.03;;;11.90;65.70;;;;;;5014370;28;20198;-66
2022/03/19 12:22:30;;;;;;;6.65;4.30;;;11.90;67.40;;;;;;5014402;28;20521;-66
2022/03/19 12:25:10;;;;;;;6.75;5.03;;;12.00;68.10;;;;;;5013765;28;20252;-67
2022/03/19 12:27:36;;;;;;;10.00;4.80;;;12.10;66.20;;;;;;5012949;28;20187;-66
2022/03/19 12:30:03;;;;;;;6.93;5.73;;;12.30;66.30;;;;;;5013891;28;20201;-67
2022/03/19 12:32:29;;;;;;;6.83;6.13;;;12.50;65.80;;;;;;5031756;28;20817;-67
2022/03/19 12:34:59;;;;;;;7.60;5.23;;;12.70;65.20;;;;;;5031190;28;20426;-70
2022/03/19 12:37:25;;;;;;;5.57;4.20;;;12.70;64.30;;;;;;5031390;28;20878;-69
2022/03/19 12:39:59;;;;;;;5.40;4.30;;;12.70;63.00;;;;;;5047223;28;20503;-68
2022/03/19 12:42:32;;;;;;;6.13;4.10;;;12.50;63.30;;;;;;5050209;28;20407;-68
2022/03/19 12:45:03;;;;;;;5.88;4.68;;;12.20;63.70;;;;;;5037629;28;20779;-67
2022/03/19 12:47:29;;;;;;;8.80;4.38;;;12.00;64.50;;;;;;5031390;28;20209;-67
2022/03/19 12:49:55;;;;;;;5.43;4.13;;;11.90;63.50;;;;;;5031349;28;20277;-68
2022/03/19 12:52:22;;;;;;;5.50;4.70;;;11.80;63.50;;;;;;5031856;28;20903;-70
2022/03/19 12:54:54;;;;;;;8.10;4.97;;;11.80;65.00;;;;;;5032239;28;20506;-69
2022/03/19 12:57:23;;;;;;;6.70;4.50;;;11.70;65.50;;;;;;5028600;28;20174;-70
2022/03/19 12:59:50;;;;;;;6.45;4.65;;;11.70;66.00;;;;;;5012432;28;20558;-68